Latest Weather Observations for Mackay Airport

IDQ60801

Issued at 2:05 pm EST Tuesday 29 July 2014 (issued every 30 minutes, with the page automatically refreshed every 10 minutes)

About weather observations | Map of weather stations | Latest weather observations for QLD | Other Formats
Station Details ID: 033045 Name: MACKAY AERO Lat: -21.17 Lon: 149.18 Height: 4.7 m
Data from the previous 72 hours. | See also: Recent months at Mackay Airport
Date/Time
EST
Temp
°C
App
Temp
°C
Dew
Point
Rel
Hum
%
Delta-T
°C
Wind Press
QNH
hPa
Press
MSL
hPa
Rain
since 9 am
mm
Dir
 
Spd
km/h
Gust
km/h
Spd
kts
Gust
kts
29/02:00pm 22.5 19.4 14.4 60 4.7 ESE 24 30 13 16 1020.2 - 0.0
29/01:30pm 23.9 21.1 15.4 59 5.1 ESE 24 30 13 16 1020.5 - 0.0
29/01:00pm 22.8 19.0 14.6 60 4.8 SE 28 32 15 17 1020.8 - 0.0
29/12:30pm 22.4 19.7 15.5 65 4.1 SE 24 30 13 16 1021.4 - 0.0
29/12:00pm 22.6 20.0 13.9 58 5.1 SE 20 26 11 14 1021.9 1021.9 0.0
29/11:30am 22.5 20.0 14.1 59 4.9 SE 20 24 11 13 1022.3 - 0.0
29/11:00am 23.0 20.5 13.5 55 5.5 SE 19 24 10 13 1022.6 - 0.0
29/10:30am 22.4 20.8 14.0 59 4.9 SE 15 20 8 11 1022.9 - 0.0
29/10:00am 21.6 20.8 15.0 66 3.9 S 13 17 7 9 1023.1 - 0.0
29/09:30am 20.3 20.0 16.5 79 2.3 SSW 13 15 7 8 1023.3 - 0.0
29/09:00am 17.8 17.6 15.8 88 1.2 SW 11 13 6 7 1023.4 1023.4 0.0
29/08:30am 16.0 15.5 14.9 93 0.6 WSW 11 13 6 7 1023.4 - 0.0
29/08:00am 14.2 13.3 13.6 96 0.3 WSW 11 13 6 7 1023.3 - 0.0
29/07:30am 12.7 11.7 12.2 97 0.3 WSW 9 11 5 6 1023.2 - 0.0
29/07:00am 11.5 10.1 11.0 97 0.3 W 9 11 5 6 1023.0 - 0.0
29/06:30am 10.8 9.2 10.3 97 0.3 W 9 11 5 6 1022.7 - 0.0
29/06:00am 11.0 9.9 10.7 98 0.2 WSW 7 9 4 5 1022.5 1022.5 0.0
29/05:30am 10.7 9.5 10.2 97 0.3 WSW 7 9 4 5 1022.2 - 0.0
29/05:00am 10.6 9.0 10.1 97 0.3 WSW 9 11 5 6 1021.9 - 0.0
29/04:30am 11.2 10.1 10.7 97 0.3 WSW 7 9 4 5 1021.6 - 0.0
29/04:00am 11.3 10.2 10.7 96 0.3 WSW 7 9 4 5 1021.5 - 0.0
29/03:30am 12.0 11.2 11.2 95 0.4 WSW 6 9 3 5 1021.3 - 0.0
29/03:00am 13.0 11.7 12.5 97 0.3 W 11 13 6 7 1021.3 1021.3 0.0
29/02:30am 12.5 12.0 12.0 97 0.3 W 6 7 3 4 1021.2 - 0.0
29/02:00am 12.8 12.4 12.5 98 0.2 W 6 7 3 4 1021.3 - 0.0
29/01:42am 13.3 12.9 13.0 98 0.2 NW 7 11 4 6 1021.3 - 0.0
29/01:30am 13.3 13.5 13.0 98 0.2 ENE 4 7 2 4 1021.4 - 0.0
29/01:00am 13.9 14.3 13.7 99 0.1 ENE 4 11 2 6 1021.6 - 0.0
29/12:30am 14.3 15.2 14.1 99 0.1 ENE 2 7 1 4 1021.7 - 0.0
29/12:00am 14.2 15.1 14.0 99 0.1 ENE 2 9 1 5 1021.8 1021.8 0.0
 
Date/Time
EST
Temp
°C
App
Temp
°C
Dew
Point
Rel
Hum
%
Delta-T
°C
Wind Press
QNH
hPa
Press
MSL
hPa
Rain
since 9 am
mm
Dir
 
Spd
km/h
Gust
km/h
Spd
kts
Gust
kts
28/11:30pm 14.3 14.5 14.1 99 0.1 ENE 6 7 3 4 1021.8 - 0.0
28/11:00pm 13.4 12.3 13.1 98 0.2 ENE 11 13 6 7 1022.0 - 0.0
28/10:30pm 13.5 12.7 13.0 97 0.3 ENE 9 11 5 6 1022.0 - 0.0
28/10:29pm 13.6 12.9 13.1 97 0.3 ENE 9 11 5 6 1022.0 - 0.0
28/10:00pm 14.1 13.9 13.6 97 0.3 ENE 7 9 4 5 1022.1 - 0.0
28/09:30pm 13.7 13.0 13.2 97 0.3 ENE 9 11 5 6 1022.1 - 0.0
28/09:17pm 14.4 13.6 14.1 98 0.2 ENE 11 13 6 7 1022.1 - 0.0
28/09:00pm 14.3 13.4 13.8 97 0.3 ENE 11 13 6 7 1022.1 1022.1 0.0
28/08:41pm 14.5 15.4 13.9 96 0.3 ENE 2 15 1 8 1021.9 - 0.0
28/08:30pm 15.5 17.1 15.0 97 0.3 CALM 0 0 0 0 1021.8 - 0.0
28/08:17pm 15.2 16.7 14.6 96 0.3 CALM 0 0 0 0 1021.8 - 0.0
28/08:00pm 16.3 17.4 15.5 95 0.5 ENE 4 7 2 4 1021.7 - 0.0
28/07:58pm 16.6 17.3 15.6 94 0.6 ENE 6 7 3 4 1021.6 - 0.0
28/07:30pm 17.5 18.1 16.7 95 0.5 ENE 9 9 5 5 1021.5 - 0.0
28/07:00pm 17.7 18.6 16.7 94 0.6 ENE 7 9 4 5 1021.2 - 0.0
28/06:30pm 18.5 19.3 17.2 92 0.8 ENE 9 13 5 7 1020.9 - 0.0
28/06:00pm 18.9 19.5 17.6 92 0.8 E 11 13 6 7 1020.7 1020.7 0.0
28/05:30pm 19.4 19.5 17.5 89 1.2 E 13 19 7 10 1020.5 - 0.0
28/05:00pm 20.1 19.5 17.5 85 1.6 E 17 20 9 11 1020.3 - 0.0
28/04:30pm 20.6 19.5 17.8 84 1.7 E 20 24 11 13 1020.2 - 0.0
28/04:00pm 21.0 19.8 17.6 81 2.1 E 20 24 11 13 1020.1 - 0.0
28/03:30pm 21.2 19.4 17.8 81 2.1 E 24 30 13 16 1019.8 - 0.0
28/03:00pm 20.9 18.9 17.3 80 2.2 ESE 24 28 13 15 1019.9 1019.9 0.0
28/02:30pm 21.3 19.4 17.7 80 2.2 ESE 24 30 13 16 1020.1 - 0.0
28/02:00pm 21.4 19.6 17.8 80 2.2 ESE 24 32 13 17 1020.3 - 0.0
28/01:30pm 21.6 19.4 17.8 79 2.4 ESE 26 32 14 17 1020.6 - 0.0
28/01:00pm 21.5 20.0 17.7 79 2.3 SE 22 28 12 15 1021.1 - 0.0
28/12:30pm 21.5 20.5 17.5 78 2.5 ESE 19 24 10 13 1021.7 - 0.0
28/12:00pm 21.4 20.5 17.8 80 2.2 SE 19 24 10 13 1022.2 1022.2 0.0
28/11:30am 21.5 20.0 17.7 79 2.3 ESE 22 28 12 15 1022.7 - 0.0
28/11:00am 21.1 19.7 17.9 82 2.0 ESE 22 30 12 16 1023.1 - 0.0
28/10:30am 21.1 20.1 17.5 80 2.2 ESE 19 24 10 13 1023.2 - 0.0
28/10:00am 20.9 20.0 16.9 78 2.4 SE 17 20 9 11 1023.4 - 0.0
28/09:30am 20.9 21.2 17.1 79 2.3 SSE 11 15 6 8 1023.5 - 0.0
28/09:00am 19.5 20.0 16.5 83 1.8 SSW 9 11 5 6 1023.5 1023.5 0.0
28/08:30am 17.2 17.0 14.8 86 1.4 W 9 11 5 6 1023.3 - 0.0
28/08:00am 15.7 15.3 14.1 90 0.9 WNW 9 11 5 6 1023.1 - 0.0
28/07:30am 14.0 13.3 13.2 95 0.4 WSW 9 13 5 7 1022.8 - 0.0
28/07:00am 12.5 11.4 12.0 97 0.3 WSW 9 11 5 6 1022.6 - 0.0
28/06:30am 11.5 9.7 10.9 96 0.3 SW 11 13 6 7 1022.2 - 0.0
28/06:00am 13.0 12.4 12.4 96 0.3 SW 7 9 4 5 1022.1 1022.1 0.0
28/05:44am 12.8 11.8 12.2 96 0.3 SSW 9 11 5 6 1021.9 - 0.0
28/05:30am 12.7 11.2 11.9 95 0.4 SSW 11 13 6 7 1021.8 - 0.0
28/05:00am 13.3 12.4 12.5 95 0.4 WSW 9 11 5 6 1021.5 - 0.0
28/04:58am 13.3 12.3 12.4 94 0.5 WSW 9 11 5 6 1021.5 - 0.0
28/04:42am 13.6 12.7 12.5 93 0.6 WSW 9 9 5 5 1021.5 - 0.0
28/04:30am 13.9 13.1 13.0 94 0.5 WSW 9 11 5 6 1021.5 - 0.0
28/04:00am 13.7 12.9 12.8 94 0.5 WSW 9 11 5 6 1021.4 - 0.0
28/03:30am 14.4 13.8 13.4 94 0.6 WSW 9 13 5 7 1021.4 - 0.0
28/03:05am 13.7 12.8 12.6 93 0.6 WSW 9 11 5 6 1021.3 - 0.0
28/03:00am 13.5 12.5 12.2 92 0.7 W 9 11 5 6 1021.3 1021.3 0.0
28/02:43am 14.6 13.9 13.3 92 0.7 SSW 9 11 5 6 1021.3 - 0.0
28/02:30am 14.5 13.5 13.4 93 0.6 SW 11 13 6 7 1021.4 - 0.0
28/02:00am 14.9 14.5 14.1 95 0.5 ENE 9 11 5 6 1021.6 - 0.0
28/01:37am 14.5 13.9 13.5 94 0.6 SW 9 11 5 6 1021.8 - 0.0
28/01:30am 14.5 14.3 13.5 94 0.6 SW 7 9 4 5 1021.9 - 0.0
28/01:00am 14.5 13.9 13.5 94 0.6 SW 9 11 5 6 1022.0 - 0.0
28/12:30am 14.9 14.7 13.6 92 0.7 SW 7 9 4 5 1022.3 - 0.0
28/12:00am 14.6 14.4 13.5 93 0.6 SW 7 9 4 5 1022.5 1022.5 0.0
 
Date/Time
EST
Temp
°C
App
Temp
°C
Dew
Point
Rel
Hum
%
Delta-T
°C
Wind Press
QNH
hPa
Press
MSL
hPa
Rain
since 9 am
mm
Dir
 
Spd
km/h
Gust
km/h
Spd
kts
Gust
kts
27/11:30pm 14.7 14.7 13.6 93 0.6 SW 6 7 3 4 1022.8 - 0.0
27/11:00pm 15.4 15.6 14.1 92 0.7 SW 6 9 3 5 1022.8 - 0.0
27/10:30pm 16.2 16.5 14.6 90 0.9 SW 6 7 3 4 1022.9 - 0.0
27/10:00pm 16.3 16.1 14.7 90 0.9 WSW 9 11 5 6 1023.0 - 0.0
27/09:30pm 17.0 17.3 15.9 93 0.6 WSW 9 13 5 7 1022.9 - 0.0
27/09:00pm 16.9 17.2 15.9 94 0.6 ENE 9 11 5 6 1022.8 1022.8 0.0
27/08:30pm 17.2 19.4 16.6 96 0.4 CALM 0 0 0 0 1022.6 - 0.0
27/08:00pm 17.6 19.1 16.6 94 0.6 ENE 4 7 2 4 1022.4 - 0.0
27/07:30pm 18.5 19.6 17.0 91 0.9 ENE 7 9 4 5 1022.1 - 0.0
27/07:00pm 18.6 18.4 16.8 89 1.1 ENE 13 15 7 8 1021.7 - 0.0
27/06:30pm 19.5 18.9 16.7 84 1.7 E 15 20 8 11 1021.2 - 0.0
27/06:00pm 19.3 18.9 17.1 87 1.3 E 15 17 8 9 1020.9 1020.9 0.0
27/05:30pm 19.7 19.2 16.9 84 1.7 E 15 20 8 11 1020.7 - 0.0
27/05:00pm 20.7 19.5 17.1 80 2.2 E 19 22 10 12 1020.5 - 0.0
27/04:30pm 21.7 20.1 17.5 77 2.6 ESE 22 26 12 14 1020.4 - 0.0
27/04:00pm 21.8 20.2 17.4 76 2.7 ESE 22 26 12 14 1020.4 - 0.0
27/03:30pm 22.1 20.5 17.5 75 2.8 ESE 22 26 12 14 1020.5 - 0.0
27/03:00pm 22.7 20.8 17.6 73 3.2 ESE 24 32 13 17 1020.6 1020.6 0.0
27/02:30pm 22.2 20.5 18.0 77 2.6 ESE 24 30 13 16 1020.7 - 0.0
27/02:00pm 22.5 20.7 17.8 75 2.9 ESE 24 30 13 16 1021.0 - 0.0
27/01:30pm 22.8 21.0 17.9 74 3.1 ESE 24 30 13 16 1021.3 - 0.0
27/01:00pm 22.8 20.8 17.5 72 3.3 ESE 24 30 13 16 1021.7 - 0.0
27/12:30pm 23.4 22.2 18.3 73 3.2 ESE 22 28 12 15 1022.1 - 0.0
27/12:00pm 23.0 21.5 17.7 72 3.3 SE 22 26 12 14 1022.5 1022.5 0.0
27/11:30am 23.3 22.5 18.4 74 3.1 SE 20 26 11 14 1022.9 - 0.0
27/11:00am 22.2 20.8 18.0 77 2.6 SE 22 28 12 15 1023.3 - 0.0
27/10:30am 21.9 20.3 18.3 80 2.2 SE 24 33 13 18 1023.7 - 0.0
27/10:00am 22.8 21.6 17.5 72 3.3 SSE 20 24 11 13 1023.8 - 0.0
27/09:30am 22.7 21.5 17.6 73 3.2 SSE 20 26 11 14 1023.9 - 0.0
27/09:07am 21.9 21.0 17.7 77 2.6 SE 19 26 10 14 1023.9 - 0.0
27/09:00am 21.5 20.4 17.3 77 2.6 S 19 26 10 14 1023.8 1023.8 0.0
27/08:30am 20.6 19.8 17.2 81 2.1 S 17 22 9 12 1023.5 - 0.0
27/08:08am 19.8 19.9 17.4 86 1.5 S 13 19 7 10 1023.3 - 0.0
27/08:00am 19.4 19.0 17.2 87 1.3 S 15 19 8 10 1023.3 - 0.0
27/07:30am 18.4 18.9 17.4 94 0.6 SSW 11 13 6 7 1023.1 - 0.0
27/07:24am 18.0 18.7 17.0 94 0.6 SSW 9 13 5 7 1023.1 - 0.0
27/07:18am 17.5 18.4 16.5 94 0.6 SSW 7 9 4 5 1023.1 - 0.0
27/07:00am 17.2 17.6 16.2 94 0.6 SSW 9 13 5 7 1023.0 - 0.0
27/06:30am 17.5 18.1 16.9 96 0.4 SSW 9 13 5 7 1022.9 - 0.0
27/06:21am 17.1 17.1 16.3 95 0.5 S 11 13 6 7 1022.8 - 0.0
27/06:00am 17.3 17.9 15.8 91 0.9 S 7 11 4 6 1022.6 1022.6 0.0
27/05:30am 18.2 18.9 17.0 93 0.7 S 9 11 5 6 1022.3 - 0.0
27/05:00am 18.0 19.1 17.2 95 0.5 S 7 9 4 5 1022.1 - 0.0
27/04:52am 18.0 18.8 17.2 95 0.5 S 9 11 5 6 1022.1 - 0.0
27/04:30am 17.5 18.6 17.0 97 0.3 S 7 11 4 6 1022.1 - 0.0
27/04:07am 16.5 17.1 15.9 96 0.4 S 7 9 4 5 1022.1 - 0.0
27/04:00am 16.7 17.4 16.1 96 0.4 S 7 9 4 5 1022.1 - 0.0
27/03:47am 16.6 17.3 16.0 96 0.4 S 7 9 4 5 1022.0 - 0.0
27/03:31am 16.8 16.8 16.2 96 0.4 S 11 13 6 7 1022.1 - 0.0
27/03:30am 16.7 16.6 16.1 96 0.4 S 11 13 6 7 1022.2 - 0.0
27/03:00am 16.8 17.5 16.0 95 0.5 S 7 9 4 5 1022.2 1022.2 0.0
27/02:30am 16.7 17.1 15.2 91 0.9 S 7 9 4 5 1022.5 - 0.0
27/02:00am 18.2 18.3 16.5 90 1.0 S 11 13 6 7 1022.6 - 0.0
27/01:30am 18.9 19.2 16.9 88 1.2 S 11 15 6 8 1022.9 - 0.0
27/01:00am 19.4 18.9 17.0 86 1.5 SSE 15 19 8 10 1023.3 - 0.0
27/12:30am 19.5 18.7 17.1 86 1.5 SSE 17 20 9 11 1023.7 - 0.0
27/12:00am 19.8 19.8 17.2 85 1.6 SSE 13 17 7 9 1023.9 1023.9 0.0
 
Date/Time
EST
Temp
°C
App
Temp
°C
Dew
Point
Rel
Hum
%
Delta-T
°C
Wind Press
QNH
hPa
Press
MSL
hPa
Rain
since 9 am
mm
Dir
 
Spd
km/h
Gust
km/h
Spd
kts
Gust
kts
26/11:30pm 19.8 19.8 17.2 85 1.6 SSE 13 17 7 9 1024.1 - 0.0
26/11:00pm 19.4 19.4 17.2 87 1.3 S 13 17 7 9 1024.5 - 0.0
26/10:30pm 19.1 19.4 17.1 88 1.2 S 11 13 6 7 1024.7 - 0.0
26/10:00pm 19.2 19.2 17.2 88 1.2 S 13 17 7 9 1024.5 - 0.0
26/09:37pm 19.1 19.5 17.2 89 1.2 S 11 13 6 7 1024.6 - 0.0
26/09:30pm 19.0 19.3 17.1 89 1.2 S 11 15 6 8 1024.5 - 0.0
26/09:17pm 19.1 19.4 17.1 88 1.2 S 11 13 6 7 1024.6 - 0.0
26/09:00pm 19.4 19.9 17.4 88 1.2 S 11 15 6 8 1024.5 1024.5 0.0
26/08:30pm 19.6 19.8 17.6 88 1.2 S 13 15 7 8 1024.4 - 0.0
26/08:00pm 19.8 20.1 17.8 88 1.2 SSE 13 17 7 9 1024.2 - 0.0
26/07:30pm 19.9 20.2 17.9 88 1.2 SSE 13 17 7 9 1024.2 - 0.0
26/07:00pm 20.0 20.3 18.0 88 1.2 SSE 13 17 7 9 1023.8 - 0.0
26/06:30pm 20.1 19.7 18.0 88 1.3 SSE 17 20 9 11 1023.4 - 0.0
26/06:00pm 20.3 20.3 18.1 87 1.4 SSE 15 20 8 11 1023.0 1023.0 0.0
26/05:30pm 20.6 19.9 18.2 86 1.5 SSE 19 24 10 13 1023.0 - 0.0
26/05:00pm 20.7 20.0 18.3 86 1.5 SE 19 24 10 13 1022.7 - 0.0
26/04:30pm 21.1 19.9 18.5 85 1.6 SE 22 28 12 15 1022.6 - 0.0
26/04:00pm 21.2 20.4 18.4 84 1.7 SE 20 28 11 15 1022.5 - 0.0
26/03:30pm 21.5 20.0 18.5 83 1.9 SE 24 30 13 16 1022.4 - 0.0
26/03:00pm 22.1 21.0 18.7 81 2.1 SE 22 26 12 14 1022.3 1022.3 0.0
26/02:30pm 22.1 20.9 18.3 79 2.4 SE 22 24 12 13 1022.2 - 0.0

Other Formats:

Comma delimited format used in spreadsheet applications
http://www.bom.gov.au/fwo/IDQ60801/IDQ60801.95367.axf

JavaScript Object Notation format (JSON) in row-major order
http://www.bom.gov.au/fwo/IDQ60801/IDQ60801.95367.json